Latest Coastal Weather Observations for Cocos Island

IDW60701

Issued at 4:23 pm WST Sunday 28 May 2017 (issued every 10 minutes, with the page automatically refreshed every 10 minutes)

About coastal observations | Map of coastal stations | Coastal observations for WA | Marine services | Other Formats
Station Details ID: 200284 Name: COCOS ISLAND AIRPORT Lat: -12.19 Lon: 96.83 Height: 3.0 m
Data from the previous 72 hours. | See also: Recent months at Cocos Island
Date/Time
WST
Temp
°C
Wind Pressure Rain since
9am
mm
Weather Cloud Vis
km
Sea
Height
m
Swell
Dir  Spd
kts
Gust
kts
hPa Trend Height
m
Period
s
Dir
28/04:00pm 28.2 SE 21 25 1009.9 - 0.0 - Partly cloudy 10 - - - -
28/03:30pm 28.1 SE 20 25 1010.3 - 0.0 - Partly cloudy 10 - - - -
28/03:00pm 28.5 ESE 20 25 1010.5 - 0.0 - Partly cloudy 10 - - - -
28/02:30pm 28.2 SE 20 26 1010.8 - 0.0 - Partly cloudy 10 - - - -
28/02:00pm 28.3 SE 19 23 1011.2 - 0.0 - Cloudy 10 - - - -
28/01:30pm 28.6 SE 19 25 1011.5 - 0.0 - Partly cloudy 10 - - - -
28/01:00pm 28.2 SE 21 27 1011.7 - 0.0 - Partly cloudy 10 - - - -
28/12:30pm 28.7 SE 20 27 1011.9 - 0.0 - Partly cloudy 10 - - - -
28/12:00pm 27.9 SE 20 26 1012.1 - 0.0 - Partly cloudy 10 - - - -
28/11:30am 28.1 ESE 21 26 1012.3 - 0.0 - Partly cloudy 10 - - - -
28/11:00am 27.8 ESE 19 24 1012.4 - 0.0 - Cloudy 10 - - - -
28/10:30am 27.3 SE 20 24 1012.4 - 0.0 - Partly cloudy 10 - - - -
28/10:00am 27.3 ESE 19 25 1012.3 - 0.0 - Partly cloudy 10 - - - -
28/09:30am 27.2 SE 20 26 1011.9 - 0.0 - Partly cloudy 10 - - - -
28/09:00am 27.1 SE 19 23 1011.6 - 0.0 - Partly cloudy 10 - - - -
28/08:54am 27.0 SE 18 23 1011.6 - 0.0 - Partly cloudy 10 - - - -
28/08:35am 26.9 SE 19 25 1011.6 - 0.0 - Partly cloudy 4 - - - -
28/08:30am 27.0 SE 19 23 1011.5 - 0.0 - Partly cloudy 10 - - - -
28/08:00am 26.9 ESE 22 27 1011.1 - 0.0 - Mostly cloudy 10 - - - -
28/07:30am 26.9 SE 21 26 1011.0 - 0.0 - Partly cloudy 10 - - - -
28/07:00am 26.7 SE 20 25 1010.8 - 0.0 - Partly cloudy 10 - - - -
28/06:30am 26.8 ESE 19 24 1010.9 - 0.0 - Partly cloudy 10 - - - -
28/06:00am 26.8 ESE 18 23 1010.8 - 0.0 - Partly cloudy 10 - - - -
28/05:30am 26.7 ESE 19 24 1010.7 - 0.0 - Partly cloudy 10 - - - -
28/05:00am 26.6 ESE 17 23 1010.6 - 0.0 - Partly cloudy 10 - - - -
28/04:30am 26.7 ESE 19 25 1010.7 - 0.0 - Partly cloudy 10 - - - -
28/04:00am 26.7 ESE 18 24 1011.0 - 0.0 - Partly cloudy 10 - - - -
28/03:30am 26.8 ESE 16 24 1011.4 - 0.0 - Partly cloudy 10 - - - -
28/03:00am 26.7 ESE 20 25 1011.6 - 0.0 - Partly cloudy 10 - - - -
28/02:30am 26.8 SE 20 26 1011.8 - 0.0 - Partly cloudy 10 - - - -
28/02:00am 26.8 ESE 18 23 1012.0 - 0.0 - Mostly clear 10 - - - -
28/01:30am 26.8 ESE 17 22 1012.4 - 0.0 - Partly cloudy 10 - - - -
28/01:00am 26.9 ESE 16 21 1012.6 - 0.0 - Partly cloudy 10 - - - -
28/12:39am 27.0 SE 18 24 1012.7 - 0.0 - Partly cloudy 10 - - - -
28/12:30am 26.8 ESE 18 23 1012.8 - 0.0 - Partly cloudy 10 - - - -
28/12:20am 27.0 SE 19 22 1012.8 - 0.0 - Partly cloudy 4 - - - -
28/12:00am 26.9 ESE 18 24 1012.7 - 0.0 - Partly cloudy 10 - - - -
 
Date/Time
WST
Temp
°C
Wind Pressure Rain since
9am
mm
Weather Cloud Vis
km
Sea
Height
m
Swell
Dir  Spd
kts
Gust
kts
hPa Trend Height
m
Period
s
Dir
27/11:30pm 27.1 ESE 17 21 1012.7 - 0.0 - Partly cloudy 10 - - - -
27/11:00pm 27.1 ESE 16 21 1012.5 - 0.0 - Mostly clear 10 - - - -
27/10:30pm 27.1 ESE 16 23 1012.5 - 0.0 - - 10 - - - -
27/10:00pm 27.2 ESE 15 23 1012.4 - 0.0 - Partly cloudy 10 - - - -
27/09:30pm 27.2 ESE 15 23 1012.1 - 0.0 - - 10 - - - -
27/09:00pm 27.2 ESE 14 21 1011.9 - 0.0 - Partly cloudy 10 - - - -
27/08:30pm 27.4 ESE 15 20 1011.4 - 0.0 - Partly cloudy 10 - - - -
27/08:00pm 27.4 ESE 15 19 1010.9 - 0.0 - Mostly cloudy 10 - - - -
27/07:30pm 27.4 ESE 15 20 1010.7 - 0.0 - Partly cloudy 10 - - - -
27/07:00pm 27.5 ESE 14 21 1010.5 - 0.0 - Partly cloudy 10 - - - -
27/06:30pm 27.5 ESE 15 21 1010.5 - 0.0 - Partly cloudy 10 - - - -
27/06:00pm 28.0 ESE 15 20 1010.3 - 0.0 - Partly cloudy 10 - - - -
27/05:30pm 28.2 ESE 16 23 1010.1 - 0.0 - Partly cloudy 8 - - - -
27/05:00pm 28.3 ESE 16 23 1009.8 - 0.0 - Partly cloudy 10 - - - -
27/04:56pm 28.5 ESE 16 21 1009.9 - 0.0 - Partly cloudy 10 - - - -
27/04:38pm 28.6 ESE 15 22 1009.9 - 0.0 - Partly cloudy 5 - - - -
27/04:30pm 28.4 ESE 18 23 1009.9 - 0.0 - Partly cloudy 10 - - - -
27/04:00pm 28.6 ESE 17 24 1009.9 - 0.0 - - 10 - - - -
27/03:30pm 28.5 ESE 19 23 1010.1 - 0.0 - Partly cloudy 10 - - - -
27/03:00pm 28.5 ESE 19 23 1010.4 - 0.0 - Partly cloudy 10 - - - -
27/02:30pm 28.2 ESE 19 25 1010.7 - 0.0 - Partly cloudy 10 - - - -
27/02:00pm 29.0 ESE 17 24 1010.8 - 0.0 - Mostly clear 10 - - - -
27/01:30pm 28.4 ESE 18 25 1011.5 - 0.0 - Partly cloudy 10 - - - -
27/01:00pm 28.2 ESE 14 19 1011.9 - 0.0 - Partly cloudy 10 - - - -
27/12:30pm 28.0 SE 19 26 1012.3 - 0.0 - Partly cloudy 10 - - - -
27/12:00pm 27.7 SE 18 21 1012.6 - 0.0 - Partly cloudy 10 - - - -
27/11:30am 27.9 SE 18 22 1012.6 - 0.0 - Partly cloudy 10 - - - -
27/11:00am 27.5 SE 18 23 1012.5 - 0.0 - Cloudy 10 - - - -
27/10:30am 27.1 SE 18 23 1012.5 - 0.0 - Partly cloudy 10 - - - -
27/10:00am 26.9 SE 18 24 1012.3 - 0.0 - Partly cloudy 10 - - - -
27/09:30am 27.2 SE 20 25 1012.0 - 0.0 - Partly cloudy 10 - - - -
27/09:00am 26.8 ESE 20 26 1011.5 - 0.0 - Partly cloudy 10 - - - -
27/08:30am 26.6 SE 20 25 1011.2 - 0.0 - Partly cloudy 10 - - - -
27/08:10am 26.4 SE 18 24 1011.1 - 0.0 - Partly cloudy 10 - - - -
27/08:00am 26.3 SE 19 24 1011.0 - 0.0 - Mostly clear 5 - - - -
27/07:51am 26.4 SE 20 25 1011.0 - 0.0 - Partly cloudy 5 - - - -
27/07:30am 26.4 SE 21 25 1010.8 - 0.0 - Partly cloudy 10 - - - -
27/07:00am 26.5 SE 20 26 1010.6 - 0.0 - Partly cloudy 10 - - - -
27/06:30am 26.4 SE 21 26 1010.5 - 0.0 - Partly cloudy 10 - - - -
27/06:00am 26.5 SE 19 25 1010.6 - 0.0 - Partly cloudy 10 - - - -
27/05:30am 26.5 SE 19 24 1010.7 - 0.0 - Partly cloudy 10 - - - -
27/05:00am 26.4 SE 19 25 1010.7 - 0.0 - Partly cloudy 10 - - - -
27/04:30am 26.5 SE 19 25 1010.9 - 0.0 - Partly cloudy 10 - - - -
27/04:00am 26.5 SE 19 23 1011.3 - 0.0 - Partly cloudy 10 - - - -
27/03:30am 26.6 ESE 16 20 1011.8 - 0.0 - Partly cloudy 10 - - - -
27/03:00am 26.5 ESE 16 23 1012.1 - 0.0 - - 10 - - - -
27/02:30am 26.6 ESE 15 21 1012.3 - 0.0 - Partly cloudy 10 - - - -
27/02:00am 26.6 ESE 15 20 1012.4 - 0.0 - Mostly clear 10 - - - -
27/01:30am 26.7 ESE 14 21 1012.8 - 0.0 - Partly cloudy 10 - - - -
27/01:00am 26.9 ESE 17 24 1012.9 - 0.0 - Partly cloudy 10 - - - -
27/12:30am 27.0 ESE 18 25 1013.2 - 0.0 - Partly cloudy 10 - - - -
27/12:00am 26.9 ESE 16 23 1013.3 - 0.0 - Partly cloudy 10 - - - -
 
Date/Time
WST
Temp
°C
Wind Pressure Rain since
9am
mm
Weather Cloud Vis
km
Sea
Height
m
Swell
Dir  Spd
kts
Gust
kts
hPa Trend Height
m
Period
s
Dir
26/11:55pm 26.9 ESE 16 21 1013.4 - 0.0 - Partly cloudy 10 - - - -
26/11:36pm 26.9 ESE 13 22 1013.2 - 0.0 - Partly cloudy 6 - - - -
26/11:30pm 26.9 ESE 13 18 1013.2 - 0.0 - Partly cloudy 10 - - - -
26/11:00pm 27.0 ESE 14 23 1013.0 - 0.0 - Partly cloudy 10 - - - -
26/10:30pm 27.1 ESE 14 23 1013.1 - 0.0 - Partly cloudy 10 - - - -
26/10:00pm 27.2 ESE 15 22 1013.0 - 0.0 - Partly cloudy 10 - - - -
26/09:30pm 27.1 ESE 17 22 1012.8 - 0.0 - Partly cloudy 10 - - - -
26/09:00pm 27.2 ESE 17 23 1012.5 - 0.0 - - 10 - - - -
26/08:30pm 27.3 ESE 19 25 1012.2 - 0.0 - - 10 - - - -
26/08:00pm 27.3 ESE 15 21 1011.8 - 0.0 - - 10 - - - -
26/07:30pm 27.4 ESE 16 23 1011.6 - 0.0 - - 10 - - - -
26/07:00pm 27.5 ESE 16 23 1011.5 - 0.0 - Partly cloudy 10 - - - -
26/06:30pm 27.7 ESE 19 27 1011.3 - 0.0 - Partly cloudy 10 - - - -
26/06:00pm 27.9 ESE 17 24 1011.1 - 0.0 - Partly cloudy 10 - - - -
26/05:30pm 28.0 ESE 19 26 1010.9 - 0.0 - Partly cloudy 10 - - - -
26/05:00pm 28.1 ESE 16 23 1011.0 - 0.0 - Mostly clear 10 - - - -
26/04:30pm 28.2 ESE 19 23 1011.3 - 0.0 - Partly cloudy 10 - - - -
26/04:00pm 28.4 ESE 19 24 1011.4 - 0.0 - Mostly clear 10 - - - -
26/03:30pm 28.5 ESE 19 25 1011.6 - 0.0 - Mostly clear 10 - - - -
26/03:17pm 28.8 ESE 17 25 1011.9 - 0.0 - Mostly clear 10 - - - -
26/03:00pm 28.5 ESE 18 24 1012.2 - 0.0 - Partly cloudy 10 - - - -
26/02:30pm 28.5 ESE 19 26 1012.6 - 0.0 - Mostly clear 10 - - - -
26/02:00pm 28.4 ESE 20 26 1012.7 - 0.0 - Mostly cloudy 10 - - - -
26/01:30pm 28.6 ESE 18 25 1012.9 - 0.0 - Partly cloudy 10 - - - -
26/01:00pm 28.9 ESE 17 26 1013.0 - 0.0 - Partly cloudy 10 - - - -
26/12:30pm 27.8 ESE 17 23 1013.3 - 0.0 - Partly cloudy 10 - - - -
26/12:00pm 28.6 ESE 15 22 1013.5 - 0.0 - Partly cloudy 10 - - - -
26/11:30am 28.6 E 15 22 1013.6 - 0.0 - Partly cloudy 10 - - - -
26/11:00am 28.4 E 16 24 1013.6 - 0.0 - Mostly clear 10 - - - -
26/10:47am 28.0 ESE 17 27 1013.6 - 0.0 - Partly cloudy 10 - - - -
26/10:30am 28.1 ESE 15 21 1013.7 - 0.0 - Partly cloudy 10 - - - -
26/10:00am 27.8 ESE 15 23 1013.6 - 0.0 - Partly cloudy 10 - - - -
26/09:30am 27.4 E 18 26 1013.2 - 0.0 - Partly cloudy 10 - - - -
26/09:22am 27.5 E 15 26 1013.2 - 0.0 - Partly cloudy 10 - - - -
26/09:00am 27.7 E 17 23 1013.1 - 0.0 - Partly cloudy 10 - - - -
26/08:30am 27.2 E 15 24 1012.7 - 0.0 - Partly cloudy 10 - - - -
26/08:00am 27.0 E 15 21 1012.1 - 0.0 - Partly cloudy 10 - - - -
26/07:30am 27.1 E 15 22 1012.0 - 0.0 - Partly cloudy 10 - - - -
26/07:18am 27.1 ESE 17 22 1011.9 - 0.0 - Partly cloudy 10 - - - -
26/07:00am 27.0 ESE 15 21 1011.8 - 0.0 - Partly cloudy 6 - - - -
26/06:59am 27.1 ESE 15 21 1011.8 - 0.0 - Partly cloudy 6 - - - -
26/06:30am 27.1 E 16 24 1011.8 - 0.0 - - 10 - - - -
26/06:00am 27.1 E 17 23 1011.6 - 0.0 - Partly cloudy 10 - - - -
26/05:30am 26.9 E 18 24 1011.6 - 0.0 - Partly cloudy 10 - - - -
26/05:00am 27.1 E 17 22 1011.4 - 0.0 - Mostly cloudy 10 - - - -
26/04:30am 27.1 E 15 22 1011.5 - 0.0 - Partly cloudy 10 - - - -
26/04:00am 27.0 E 15 19 1011.8 - 0.0 - Partly cloudy 10 - - - -
26/03:30am 27.1 E 16 22 1012.1 - 0.0 - Partly cloudy 10 - - - -
26/03:00am 27.1 E 16 22 1012.4 - 0.0 - Partly cloudy 10 - - - -
26/02:30am 27.2 E 14 21 1012.5 - 0.0 - Partly cloudy 10 - - - -
26/02:00am 27.1 E 14 20 1012.5 - 0.0 - Cloudy 10 - - - -
26/01:30am 27.3 E 14 19 1012.7 - 0.0 - Partly cloudy 10 - - - -
26/01:00am 27.3 E 13 17 1012.8 - 0.0 - Partly cloudy 10 - - - -
26/12:30am 27.4 ESE 12 17 1013.0 - 0.0 - Partly cloudy 10 - - - -
26/12:00am 27.5 ESE 12 18 1012.9 - 0.0 - Partly cloudy 10 - - - -
 
Date/Time
WST
Temp
°C
Wind Pressure Rain since
9am
mm
Weather Cloud Vis
km
Sea
Height
m
Swell
Dir  Spd
kts
Gust
kts
hPa Trend Height
m
Period
s
Dir
25/11:30pm 27.5 E 14 21 1012.9 - 0.0 - Partly cloudy 10 - - - -
25/11:08pm 27.4 ESE 15 24 1012.7 - 0.0 - Partly cloudy 10 - - - -
25/11:00pm 27.4 ESE 16 21 1012.5 - 0.0 - Cloudy 10 - - - -
25/10:49pm 27.4 ESE 14 21 1012.6 - 0.0 - Partly cloudy 4 - - - -
25/10:30pm 27.7 E 13 21 1012.5 - 0.0 - Partly cloudy 10 - - - -
25/10:00pm 27.5 ESE 12 17 1012.3 - 0.0 - Partly cloudy 10 - - - -
25/09:30pm 27.5 ESE 15 20 1012.2 - 0.0 - Partly cloudy 10 - - - -
25/09:00pm 27.7 ESE 14 21 1011.9 - 0.0 - Partly cloudy 10 - - - -
25/08:30pm 27.8 ESE 13 18 1011.5 - 0.0 - Partly cloudy 10 - - - -
25/08:00pm 28.0 ESE 13 19 1010.9 - 0.0 - Mostly cloudy 10 - - - -
25/07:30pm 28.1 ESE 12 19 1010.7 - 0.0 - Partly cloudy 10 - - - -
25/07:00pm 28.2 ESE 13 19 1010.5 - 0.0 - Partly cloudy 10 - - - -
25/06:30pm 28.4 ESE 14 21 1010.2 - 0.0 - Partly cloudy 10 - - - -
25/06:00pm 28.5 ESE 13 19 1010.2 - 0.0 - Partly cloudy 10 - - - -

Other Formats:

Comma delimited format used in spreadsheet applications
http://www.bom.gov.au/fwo/IDW60701/IDW60701.96996.axf

JavaScript Object Notation format (JSON) in row-major order
http://www.bom.gov.au/fwo/IDW60701/IDW60701.96996.json